createdAt,value
2019-03-13T00:00:25.221Z,8.22
2019-03-13T00:01:28.524Z,8.22
2019-03-13T00:02:39.965Z,8.29
2019-03-13T00:03:25.272Z,8.23
2019-03-13T00:04:25.086Z,8.23
2019-03-13T00:05:25.338Z,8.33
2019-03-13T00:06:25.337Z,8.23
2019-03-13T00:07:25.339Z,8.4
2019-03-13T00:08:25.398Z,8.33
2019-03-13T00:10:25.385Z,8.45
2019-03-13T00:11:25.405Z,8.45
2019-03-13T00:12:25.414Z,8.45
2019-03-13T00:13:25.435Z,8.43
2019-03-13T00:14:25.446Z,8.48
2019-03-13T00:15:25.460Z,8.41
2019-03-13T00:16:25.479Z,8.37
2019-03-13T00:17:25.492Z,8.34
2019-03-13T00:18:40.176Z,8.45
2019-03-13T00:19:25.528Z,8.41
2019-03-13T00:20:25.648Z,8.38
2019-03-13T00:21:25.609Z,8.43
2019-03-13T00:22:25.573Z,8.43
2019-03-13T00:23:25.594Z,8.44
2019-03-13T00:24:25.605Z,8.38
2019-03-13T00:25:25.623Z,8.36
2019-03-13T00:27:25.655Z,8.45
2019-03-13T00:28:25.669Z,8.43
2019-03-13T00:29:25.700Z,8.52
2019-03-13T00:30:40.366Z,8.37
2019-03-13T00:31:25.717Z,8.53
2019-03-13T00:32:25.745Z,8.44
2019-03-13T00:33:40.412Z,8.45
2019-03-13T00:34:25.766Z,8.41
2019-03-13T00:35:25.785Z,8.41
2019-03-13T00:36:25.851Z,8.48
2019-03-13T00:37:25.818Z,8.5
2019-03-13T00:38:25.828Z,8.52
2019-03-13T00:39:25.845Z,8.43
2019-03-13T00:40:25.867Z,8.45
2019-03-13T00:41:25.929Z,8.5
2019-03-13T00:42:25.922Z,8.44
2019-03-13T00:43:25.932Z,8.53
2019-03-13T00:44:25.929Z,8.55
2019-03-13T00:45:40.608Z,8.55
2019-03-13T00:46:40.622Z,8.59
2019-03-13T00:47:25.982Z,8.59
2019-03-13T00:48:25.994Z,8.55
2019-03-13T00:49:26.007Z,8.7
2019-03-13T00:50:26.022Z,8.63
2019-03-13T00:51:26.047Z,8.68
2019-03-13T00:53:26.079Z,8.61
2019-03-13T00:54:26.086Z,8.65
2019-03-13T00:55:26.120Z,8.7
2019-03-13T00:56:26.124Z,8.68
2019-03-13T00:57:26.189Z,8.65
2019-03-13T00:58:40.820Z,8.62
2019-03-13T00:59:26.168Z,8.65
2019-03-13T01:00:40.853Z,8.66
2019-03-13T01:01:26.252Z,8.62
2019-03-13T01:02:26.222Z,8.71
2019-03-13T01:03:26.235Z,8.58
2019-03-13T01:04:27.255Z,8.68
2019-03-13T01:05:40.932Z,8.65
2019-03-13T01:06:26.283Z,8.61
2019-03-13T01:07:26.298Z,8.66
2019-03-13T01:08:26.315Z,8.62
2019-03-13T01:09:26.335Z,8.63
2019-03-13T01:10:26.350Z,8.68
2019-03-13T01:11:29.592Z,8.62
2019-03-13T01:12:26.383Z,8.55
2019-03-13T01:13:26.397Z,8.61
2019-03-13T01:14:26.417Z,8.58
2019-03-13T01:15:26.445Z,8.53
2019-03-13T01:16:26.449Z,8.58
2019-03-13T01:17:26.470Z,8.55
2019-03-13T01:18:26.479Z,8.68
2019-03-13T01:19:41.171Z,8.65
2019-03-13T01:20:26.510Z,8.61
2019-03-13T01:21:41.192Z,8.63
2019-03-13T01:22:26.545Z,8.65
2019-03-13T01:23:26.562Z,8.59
2019-03-13T01:24:26.581Z,8.63
2019-03-13T01:25:26.355Z,8.68
2019-03-13T01:26:26.615Z,8.65
2019-03-13T01:27:26.640Z,8.63
2019-03-13T01:28:26.641Z,8.62
2019-03-13T01:29:26.658Z,8.68
2019-03-13T01:32:41.372Z,8.63
2019-03-13T01:33:26.725Z,8.65
2019-03-13T01:34:26.803Z,8.65
2019-03-13T01:35:26.757Z,8.63
2019-03-13T01:36:26.775Z,8.65
2019-03-13T01:37:41.451Z,8.7
2019-03-13T01:38:26.806Z,8.58
2019-03-13T01:39:41.511Z,8.62
2019-03-13T01:40:26.840Z,8.55
2019-03-13T01:41:26.854Z,8.65
2019-03-13T01:42:26.872Z,8.66
2019-03-13T01:43:26.895Z,8.56
2019-03-13T01:44:26.654Z,8.62
2019-03-13T01:45:26.919Z,8.61
2019-03-13T01:46:26.938Z,8.53
2019-03-13T01:47:26.963Z,8.52
2019-03-13T01:48:26.968Z,8.45
2019-03-13T01:49:26.741Z,8.55
2019-03-13T01:50:27.084Z,8.4
2019-03-13T01:51:27.020Z,8.45
2019-03-13T01:52:27.037Z,8.45
2019-03-13T01:53:41.716Z,8.44
2019-03-13T01:54:27.068Z,8.36
2019-03-13T01:55:27.099Z,8.37
2019-03-13T01:57:27.117Z,8.2
2019-03-13T01:58:41.802Z,8.07
2019-03-13T01:59:27.147Z,8.05
2019-03-13T02:00:27.164Z,8.08
2019-03-13T02:01:27.282Z,7.97
2019-03-13T02:02:41.863Z,8
2019-03-13T02:03:27.211Z,7.92
2019-03-13T02:05:27.295Z,7.82
2019-03-13T02:06:41.924Z,7.79
2019-03-13T02:07:27.280Z,7.9
2019-03-13T02:08:42.049Z,7.8
2019-03-13T02:09:27.316Z,7.69
2019-03-13T02:10:27.376Z,7.63
2019-03-13T02:11:27.344Z,7.63
2019-03-13T02:12:27.362Z,7.64
2019-03-13T02:13:27.375Z,7.69
2019-03-13T02:14:27.392Z,7.72
2019-03-13T02:15:27.404Z,7.63
2019-03-13T02:17:27.436Z,7.69
2019-03-13T02:18:27.452Z,7.67
2019-03-13T02:19:27.474Z,7.53
2019-03-13T02:20:27.238Z,7.55
2019-03-13T02:21:27.512Z,7.45
2019-03-13T02:22:27.519Z,7.55
2019-03-13T02:23:27.543Z,7.46
2019-03-13T02:24:27.551Z,7.48
2019-03-13T02:25:27.566Z,7.34
2019-03-13T02:26:27.603Z,7.35
2019-03-13T02:27:27.601Z,7.28
2019-03-13T02:28:27.612Z,7.27
2019-03-13T02:29:27.631Z,7.24
2019-03-13T02:30:27.667Z,7.12
2019-03-13T02:31:27.679Z,7.13
2019-03-13T02:32:27.738Z,7.12
2019-03-13T02:33:27.705Z,7.13
2019-03-13T02:34:27.775Z,7.15
2019-03-13T02:35:27.729Z,7.1
2019-03-13T02:36:42.405Z,7.06
2019-03-13T02:37:27.760Z,7.12
2019-03-13T02:38:27.776Z,7.1
2019-03-13T02:39:27.937Z,7.06
2019-03-13T02:40:42.468Z,6.94
2019-03-13T02:41:27.835Z,6.97
2019-03-13T02:42:27.962Z,6.94
2019-03-13T02:43:27.906Z,6.98
2019-03-13T02:44:27.875Z,7.03
2019-03-13T02:45:27.903Z,6.95
2019-03-13T02:46:27.906Z,6.99
2019-03-13T02:48:28.072Z,6.97
2019-03-13T02:49:27.971Z,6.98
2019-03-13T02:50:27.980Z,6.98
2019-03-13T02:52:28.004Z,6.89
2019-03-13T02:53:28.201Z,6.92
2019-03-13T02:54:28.036Z,6.97
2019-03-13T02:55:27.802Z,6.92
2019-03-13T02:56:42.728Z,6.92
2019-03-13T02:58:42.903Z,6.91
2019-03-13T02:59:28.167Z,6.95
2019-03-13T03:00:28.118Z,6.99
2019-03-13T03:01:27.894Z,6.89
2019-03-13T03:02:28.157Z,6.95
2019-03-13T03:03:28.169Z,6.88
2019-03-13T03:04:28.183Z,6.91
2019-03-13T03:05:28.227Z,6.92
2019-03-13T03:06:28.219Z,6.95
2019-03-13T03:07:28.236Z,6.8
2019-03-13T03:08:28.253Z,6.8
2019-03-13T03:09:28.305Z,6.85
2019-03-13T03:10:28.286Z,6.81
2019-03-13T03:11:28.347Z,6.81
2019-03-13T03:12:42.823Z,6.84
2019-03-13T03:13:28.424Z,6.84
2019-03-13T03:14:28.352Z,6.91
2019-03-13T03:15:28.369Z,6.89
2019-03-13T03:16:28.370Z,6.84
2019-03-13T03:17:28.489Z,6.91
2019-03-13T03:18:28.405Z,6.85
2019-03-13T03:19:28.420Z,6.77
2019-03-13T03:20:28.440Z,6.84
2019-03-13T03:22:28.523Z,6.87
2019-03-13T03:23:28.501Z,6.84
2019-03-13T03:24:28.570Z,6.95
2019-03-13T03:25:28.534Z,6.79
2019-03-13T03:26:28.537Z,6.85
2019-03-13T03:27:28.649Z,6.85
2019-03-13T03:28:43.226Z,6.87
2019-03-13T03:29:28.580Z,6.79
2019-03-13T03:30:28.770Z,6.76
2019-03-13T03:31:28.721Z,6.88
2019-03-13T03:32:28.904Z,6.95
2019-03-13T03:33:28.661Z,6.88
2019-03-13T03:34:28.688Z,6.85
2019-03-13T03:35:28.672Z,6.8
2019-03-13T03:36:28.716Z,6.88
2019-03-13T03:37:28.762Z,6.84
2019-03-13T03:38:28.764Z,6.85
2019-03-13T03:39:28.749Z,6.97
2019-03-13T03:40:28.754Z,6.88
2019-03-13T03:41:28.777Z,6.91
2019-03-13T03:42:28.788Z,6.95
2019-03-13T03:43:43.805Z,7.09
2019-03-13T03:44:28.816Z,7.1
2019-03-13T03:45:28.836Z,6.98
2019-03-13T03:46:28.850Z,7.12
2019-03-13T03:48:28.878Z,7.09
2019-03-13T03:49:28.896Z,6.98
2019-03-13T03:50:28.927Z,6.98
2019-03-13T03:51:28.935Z,6.94
2019-03-13T03:52:28.967Z,6.98
2019-03-13T03:53:28.961Z,6.98
2019-03-13T03:54:28.973Z,6.97
2019-03-13T03:55:29.086Z,6.89
2019-03-13T03:56:43.663Z,6.91
2019-03-13T03:57:29.021Z,6.95
2019-03-13T03:58:32.026Z,6.92
2019-03-13T04:00:29.072Z,6.92
2019-03-13T04:01:29.105Z,6.91
2019-03-13T04:02:29.102Z,6.88
2019-03-13T04:03:29.131Z,6.91
2019-03-13T04:04:29.138Z,6.94
2019-03-13T04:05:29.141Z,6.88
2019-03-13T04:06:29.165Z,6.88
2019-03-13T04:07:29.195Z,6.95
2019-03-13T04:08:29.283Z,6.94
2019-03-13T04:10:29.227Z,6.92
2019-03-13T04:11:43.896Z,6.85
2019-03-13T04:12:29.271Z,6.85
2019-03-13T04:13:29.267Z,6.97
2019-03-13T04:14:29.290Z,6.92
2019-03-13T04:15:43.957Z,6.95
2019-03-13T04:16:29.327Z,6.84
2019-03-13T04:17:29.336Z,6.81
2019-03-13T04:19:44.030Z,6.79
2019-03-13T04:20:29.410Z,6.74
2019-03-13T04:21:44.059Z,6.85
2019-03-13T04:22:29.409Z,6.77
2019-03-13T04:23:29.478Z,6.79
2019-03-13T04:24:29.194Z,6.8
2019-03-13T04:25:44.117Z,6.73
2019-03-13T04:26:44.132Z,6.77
2019-03-13T04:27:29.597Z,6.81
2019-03-13T04:28:29.506Z,6.76
2019-03-13T04:29:29.519Z,6.69
2019-03-13T04:30:29.536Z,6.71
2019-03-13T04:31:44.320Z,6.66
2019-03-13T04:32:29.574Z,6.64
2019-03-13T04:33:33.253Z,6.64
2019-03-13T04:34:29.603Z,6.59
2019-03-13T04:35:29.639Z,6.66
2019-03-13T04:36:29.630Z,6.58
2019-03-13T04:37:29.663Z,6.56
2019-03-13T04:38:29.661Z,6.58
2019-03-13T04:39:29.708Z,6.54
2019-03-13T04:40:29.686Z,6.38
2019-03-13T04:41:29.698Z,6.56
2019-03-13T04:42:29.715Z,6.56
2019-03-13T04:43:44.447Z,6.51
2019-03-13T04:44:29.749Z,6.58
2019-03-13T04:45:29.770Z,6.56
2019-03-13T04:46:29.816Z,6.54
2019-03-13T04:47:44.560Z,6.58
2019-03-13T04:48:29.815Z,6.51
2019-03-13T04:49:29.822Z,6.59
2019-03-13T04:50:29.863Z,6.51
2019-03-13T04:51:29.854Z,6.56
2019-03-13T04:52:29.873Z,6.52
2019-03-13T04:53:29.887Z,6.41
2019-03-13T04:54:29.901Z,6.38
2019-03-13T04:56:30.031Z,6.4
2019-03-13T04:57:29.947Z,6.44
2019-03-13T04:59:29.981Z,6.43
2019-03-13T05:00:29.998Z,6.46
2019-03-13T05:01:31.170Z,6.43
2019-03-13T05:02:30.025Z,6.4
2019-03-13T05:03:44.700Z,6.44
2019-03-13T05:04:30.054Z,6.41
2019-03-13T05:05:30.069Z,6.43
2019-03-13T05:06:30.083Z,6.44
2019-03-13T05:07:30.099Z,6.46
2019-03-13T05:09:30.201Z,6.46
2019-03-13T05:10:30.144Z,6.33
2019-03-13T05:11:30.161Z,6.33
2019-03-13T05:12:30.177Z,6.31
2019-03-13T05:13:30.198Z,6.28
2019-03-13T05:14:32.614Z,6.31
2019-03-13T05:15:30.200Z,6.27
2019-03-13T05:16:30.220Z,6.25
2019-03-13T05:17:30.228Z,6.21
2019-03-13T05:18:44.922Z,6.22
2019-03-13T05:19:30.262Z,6.19
2019-03-13T05:20:30.277Z,6.17
2019-03-13T05:21:30.295Z,6.19
2019-03-13T05:22:30.304Z,6.17
2019-03-13T05:23:30.324Z,6.14
2019-03-13T05:24:45.007Z,6.21
2019-03-13T05:25:45.023Z,6.04
2019-03-13T05:26:30.402Z,6.08
2019-03-13T05:27:30.384Z,6.08
2019-03-13T05:28:30.403Z,6.06
2019-03-13T05:29:30.412Z,5.97
2019-03-13T05:30:30.543Z,5.97
2019-03-13T05:31:30.446Z,5.96
2019-03-13T05:32:30.638Z,5.9
2019-03-13T05:33:30.506Z,5.85
2019-03-13T05:34:30.488Z,5.76
2019-03-13T05:35:30.503Z,5.82
2019-03-13T05:36:30.522Z,5.81
2019-03-13T05:37:30.533Z,5.79
2019-03-13T05:39:30.589Z,5.83
2019-03-13T05:40:45.251Z,5.93
2019-03-13T05:42:30.610Z,5.93
2019-03-13T05:43:30.632Z,6.04
2019-03-13T05:44:30.640Z,6.06
2019-03-13T05:45:30.738Z,6
2019-03-13T05:46:30.674Z,5.99
2019-03-13T05:47:30.683Z,6.15
2019-03-13T05:48:30.710Z,6.11
2019-03-13T05:49:30.715Z,6.04
2019-03-13T05:51:30.745Z,6.21
2019-03-13T05:52:30.761Z,6.12
2019-03-13T05:53:30.778Z,6.14
2019-03-13T05:54:30.789Z,6.11
2019-03-13T05:55:30.806Z,6.12
2019-03-13T05:56:30.822Z,6.09
2019-03-13T05:57:30.838Z,6.11
2019-03-13T05:58:30.852Z,6.08
2019-03-13T05:59:30.898Z,6.01
2019-03-13T06:00:30.908Z,6.03
2019-03-13T06:01:45.588Z,6.09
2019-03-13T06:02:30.945Z,6.01
2019-03-13T06:03:30.963Z,6.06
2019-03-13T06:04:30.970Z,5.99
2019-03-13T06:05:30.984Z,5.99
2019-03-13T06:06:45.664Z,5.91
2019-03-13T06:07:31.072Z,6.04
2019-03-13T06:09:31.047Z,5.93
2019-03-13T06:10:31.073Z,6.01
2019-03-13T06:11:31.082Z,6.12
2019-03-13T06:13:31.108Z,6.44
2019-03-13T06:14:31.182Z,6.64
2019-03-13T06:15:31.142Z,6.62
2019-03-13T06:16:31.160Z,6.62
2019-03-13T06:17:31.188Z,6.74
2019-03-13T06:18:45.857Z,6.81
2019-03-13T06:19:31.211Z,6.76
2019-03-13T06:20:31.230Z,6.66
2019-03-13T06:21:31.244Z,6.7
2019-03-13T06:22:45.927Z,6.67
2019-03-13T06:23:31.278Z,6.71
2019-03-13T06:24:31.312Z,6.62
2019-03-13T06:25:45.983Z,6.79
2019-03-13T06:26:31.081Z,6.73
2019-03-13T06:28:31.408Z,6.7
2019-03-13T06:29:34.113Z,6.73
2019-03-13T06:30:31.398Z,6.73
2019-03-13T06:32:31.424Z,6.69
2019-03-13T06:33:31.438Z,6.88
2019-03-13T06:34:46.124Z,6.8
2019-03-13T06:35:31.486Z,6.88
2019-03-13T06:36:31.495Z,6.77
2019-03-13T06:37:31.507Z,6.8
2019-03-13T06:38:46.184Z,6.81
2019-03-13T06:39:34.361Z,6.8
2019-03-13T06:40:31.564Z,6.8
2019-03-13T06:41:31.569Z,6.77
2019-03-13T06:42:31.601Z,6.84
2019-03-13T06:43:31.609Z,6.89
2019-03-13T06:45:31.637Z,6.99
2019-03-13T06:46:31.649Z,6.92
2019-03-13T06:47:31.419Z,6.94
2019-03-13T06:48:31.683Z,6.92
2019-03-13T06:49:46.361Z,6.81
2019-03-13T06:50:31.732Z,6.8
2019-03-13T06:51:31.735Z,6.92
2019-03-13T06:52:34.246Z,6.91
2019-03-13T06:53:46.427Z,6.94
2019-03-13T06:54:31.778Z,6.92
2019-03-13T06:55:31.798Z,6.88
2019-03-13T06:56:31.811Z,6.89
2019-03-13T06:57:31.947Z,6.95
2019-03-13T06:58:31.840Z,6.95
2019-03-13T06:59:31.858Z,6.92
2019-03-13T07:00:31.640Z,6.95
2019-03-13T07:01:31.992Z,7.03
2019-03-13T07:02:31.957Z,6.98
2019-03-13T07:03:31.924Z,7.12
2019-03-13T07:04:31.941Z,7.06
2019-03-13T07:05:46.616Z,7.09
2019-03-13T07:06:31.979Z,7.09
2019-03-13T07:07:32.040Z,7.12
2019-03-13T07:08:32.104Z,7.13
2019-03-13T07:09:32.067Z,7.2
2019-03-13T07:10:32.035Z,7.09
2019-03-13T07:11:32.052Z,7.15
2019-03-13T07:12:32.068Z,7.1
2019-03-13T07:13:32.091Z,7.15
2019-03-13T07:15:32.114Z,7.07
2019-03-13T07:16:32.129Z,7.16
2019-03-13T07:17:32.155Z,7.48
2019-03-13T07:18:32.167Z,7.57
2019-03-13T07:19:46.847Z,7.9
2019-03-13T07:20:32.251Z,8.07
2019-03-13T07:21:32.264Z,8.19
2019-03-13T07:22:32.238Z,8.34
2019-03-13T07:23:32.302Z,8.38
2019-03-13T07:24:32.294Z,8.71
2019-03-13T07:25:46.966Z,8.87
2019-03-13T07:26:32.359Z,8.98
2019-03-13T07:27:32.343Z,9.11
2019-03-13T07:28:32.115Z,9.13
2019-03-13T07:29:32.406Z,9.18
2019-03-13T07:30:32.420Z,9.17
2019-03-13T07:31:32.463Z,9.1
2019-03-13T07:32:32.191Z,9.13
2019-03-13T07:34:32.484Z,9.1
2019-03-13T07:35:32.513Z,8.84
2019-03-13T07:36:32.517Z,8.77
2019-03-13T07:37:32.291Z,8.77
2019-03-13T07:38:32.596Z,8.74
2019-03-13T07:39:32.580Z,8.55
2019-03-13T07:40:32.595Z,8.55
2019-03-13T07:41:47.286Z,8.41
2019-03-13T07:42:32.390Z,8.41
2019-03-13T07:43:32.656Z,8.44
2019-03-13T07:44:47.349Z,8.4
2019-03-13T07:45:32.697Z,8.44
2019-03-13T07:46:32.717Z,8.37
2019-03-13T07:48:32.751Z,8.5
2019-03-13T07:49:32.874Z,8.52
2019-03-13T07:50:32.788Z,8.76
2019-03-13T07:51:32.813Z,8.73
2019-03-13T07:52:35.249Z,8.68
2019-03-13T07:53:32.902Z,8.47
2019-03-13T07:54:32.886Z,8.55
2019-03-13T07:55:32.891Z,8.62
2019-03-13T07:56:32.909Z,8.66
2019-03-13T07:57:47.593Z,8.8
2019-03-13T07:58:32.947Z,8.79
2019-03-13T07:59:32.972Z,8.8
2019-03-13T08:00:32.993Z,8.83
2019-03-13T08:01:32.998Z,8.77
2019-03-13T08:02:32.799Z,8.66
2019-03-13T08:03:33.142Z,8.55
2019-03-13T08:04:33.069Z,8.58
2019-03-13T08:05:33.072Z,8.71
2019-03-13T08:06:33.094Z,8.68
2019-03-13T08:07:33.220Z,8.59
2019-03-13T08:08:33.128Z,8.59
2019-03-13T08:09:47.811Z,8.53
2019-03-13T08:10:33.175Z,8.55
2019-03-13T08:11:33.220Z,8.56
2019-03-13T08:12:33.313Z,8.62
2019-03-13T08:13:47.886Z,8.83
2019-03-13T08:14:33.242Z,8.92
2019-03-13T08:15:33.337Z,9.05
2019-03-13T08:16:33.286Z,9.29
2019-03-13T08:17:33.064Z,9.4
2019-03-13T08:18:33.343Z,9.38
2019-03-13T08:19:33.393Z,9.56
2019-03-13T08:20:33.359Z,9.57
2019-03-13T08:22:33.156Z,9.65
2019-03-13T08:24:33.441Z,9.46
2019-03-13T08:25:48.126Z,9.23
2019-03-13T08:26:48.147Z,9.21
2019-03-13T08:27:33.506Z,9.28
2019-03-13T08:28:48.204Z,9.46
2019-03-13T08:29:33.547Z,9.42
2019-03-13T08:30:33.669Z,9.42
2019-03-13T08:31:33.593Z,9.48
2019-03-13T08:32:33.607Z,9.56
2019-03-13T08:33:33.720Z,9.69
2019-03-13T08:34:33.649Z,9.89
2019-03-13T08:35:33.672Z,9.78
2019-03-13T08:36:33.704Z,9.83
2019-03-13T08:37:33.763Z,10.01
2019-03-13T08:38:33.736Z,9.84
2019-03-13T08:39:33.761Z,9.76
2019-03-13T08:40:33.778Z,9.71
2019-03-13T08:41:48.457Z,9.9
2019-03-13T08:42:33.814Z,9.93
2019-03-13T08:43:33.842Z,10.14
2019-03-13T08:44:33.861Z,10.29
2019-03-13T08:45:33.877Z,10.79
2019-03-13T08:46:33.897Z,10.92
2019-03-13T08:47:33.918Z,11.27
2019-03-13T08:48:33.940Z,11.35
2019-03-13T08:49:33.728Z,11.32
2019-03-13T08:50:34.040Z,11.27
2019-03-13T08:51:34.007Z,11.43
2019-03-13T08:52:34.028Z,11.4
2019-03-13T08:54:34.071Z,11.57
2019-03-13T08:55:34.091Z,11.57
2019-03-13T08:56:34.107Z,11.47
2019-03-13T08:57:34.135Z,11.27
2019-03-13T08:58:34.159Z,10.89
2019-03-13T08:59:34.171Z,10.81
2019-03-13T09:00:48.857Z,10.78
2019-03-13T09:01:34.217Z,10.86
2019-03-13T09:02:34.234Z,10.74
2019-03-13T09:03:34.262Z,10.67
2019-03-13T09:04:34.281Z,10.82
2019-03-13T09:05:34.299Z,11.15
2019-03-13T09:06:34.423Z,11.32
2019-03-13T09:07:34.349Z,11.69
2019-03-13T09:08:34.369Z,11.65
2019-03-13T09:09:34.385Z,11.88
2019-03-13T09:10:34.411Z,11.95
2019-03-13T09:11:34.480Z,11.86
2019-03-13T09:12:34.453Z,11.75
2019-03-13T09:13:34.552Z,11.64
2019-03-13T09:14:34.491Z,11.75
2019-03-13T09:15:34.512Z,11.94
2019-03-13T09:16:49.198Z,12.17
2019-03-13T09:17:34.562Z,12.05
2019-03-13T09:18:34.680Z,12.02
2019-03-13T09:20:34.629Z,11.96
2019-03-13T09:21:36.158Z,11.94
2019-03-13T09:22:34.666Z,11.85
2019-03-13T09:23:34.690Z,11.76
2019-03-13T09:24:34.716Z,11.95
2019-03-13T09:26:34.755Z,11.95
2019-03-13T09:27:34.780Z,11.96
2019-03-13T09:28:49.515Z,12.01
2019-03-13T09:29:35.331Z,12.04
2019-03-13T09:30:34.893Z,11.96
2019-03-13T09:31:34.874Z,11.7
2019-03-13T09:32:49.555Z,11.69
2019-03-13T09:33:34.911Z,11.65
2019-03-13T09:34:34.937Z,11.83
2019-03-13T09:35:34.964Z,11.83
2019-03-13T09:36:35.009Z,11.7
2019-03-13T09:37:34.752Z,11.57
2019-03-13T09:38:38.147Z,11.47
2019-03-13T09:39:35.056Z,11.69
2019-03-13T09:40:49.733Z,11.67
2019-03-13T09:41:35.088Z,11.75
2019-03-13T09:42:34.857Z,11.79
2019-03-13T09:43:35.130Z,11.9
2019-03-13T09:44:49.820Z,11.88
2019-03-13T09:45:35.222Z,11.78
2019-03-13T09:46:35.227Z,11.7
2019-03-13T09:47:35.217Z,11.65
2019-03-13T09:48:49.907Z,11.67
2019-03-13T09:49:35.263Z,11.67
2019-03-13T09:50:35.285Z,11.79
2019-03-13T09:51:35.298Z,12.02
2019-03-13T09:52:35.334Z,12.17
2019-03-13T09:53:49.759Z,12.24
2019-03-13T09:54:35.376Z,12.13
2019-03-13T09:56:35.405Z,11.91
2019-03-13T09:57:35.439Z,11.78
2019-03-13T09:58:35.456Z,11.76
2019-03-13T09:59:48.028Z,11.72
2019-03-13T10:00:50.157Z,11.7
2019-03-13T10:01:35.518Z,11.76
2019-03-13T10:03:50.223Z,11.76
2019-03-13T10:04:35.667Z,11.69
2019-03-13T10:06:35.642Z,11.49
2019-03-13T10:07:35.637Z,11.44
2019-03-13T10:08:35.660Z,11.22
2019-03-13T10:09:35.687Z,11.28
2019-03-13T10:10:35.749Z,11.25
2019-03-13T10:11:35.730Z,11.24
2019-03-13T10:12:35.745Z,11.19
2019-03-13T10:14:35.795Z,11.29
2019-03-13T10:15:50.464Z,11.33
2019-03-13T10:16:35.825Z,11.28
2019-03-13T10:17:35.840Z,11.4
2019-03-13T10:18:50.538Z,11.57
2019-03-13T10:19:35.886Z,11.52
2019-03-13T10:20:35.901Z,11.49
2019-03-13T10:21:35.919Z,11.6
2019-03-13T10:22:35.949Z,11.88
2019-03-13T10:23:35.961Z,12.23
2019-03-13T10:24:35.980Z,12.24
2019-03-13T10:25:36.001Z,12.24
2019-03-13T10:26:36.025Z,12.14
2019-03-13T10:27:36.044Z,12.19
2019-03-13T10:28:36.087Z,12.27
2019-03-13T10:29:36.096Z,12.34
2019-03-13T10:30:36.110Z,12.12
2019-03-13T10:31:50.791Z,11.98
2019-03-13T10:32:36.164Z,11.99
2019-03-13T10:33:36.168Z,12.04
2019-03-13T10:34:36.298Z,12.17
2019-03-13T10:35:50.876Z,12.39
2019-03-13T10:36:36.227Z,12.29
2019-03-13T10:37:36.249Z,12.27
2019-03-13T10:38:36.266Z,12.24
2019-03-13T10:39:36.288Z,12.29
2019-03-13T10:40:36.308Z,12.09
2019-03-13T10:42:36.353Z,11.86
2019-03-13T10:43:36.373Z,11.96
2019-03-13T10:44:36.391Z,11.95
2019-03-13T10:45:36.413Z,11.88
2019-03-13T10:46:51.096Z,11.8
2019-03-13T10:47:36.467Z,11.79
2019-03-13T10:48:36.474Z,11.96
2019-03-13T10:49:36.498Z,11.98
2019-03-13T10:50:36.515Z,11.73
2019-03-13T10:51:51.196Z,11.73
2019-03-13T10:52:36.568Z,11.72
2019-03-13T10:53:36.573Z,11.6
2019-03-13T10:54:36.671Z,11.55
2019-03-13T10:55:36.623Z,11.64
2019-03-13T10:56:36.634Z,11.75
2019-03-13T10:57:36.728Z,11.86
2019-03-13T10:58:36.674Z,11.7
2019-03-13T10:59:36.701Z,11.69
2019-03-13T11:00:36.741Z,11.54
2019-03-13T11:01:36.745Z,11.54
2019-03-13T11:02:36.526Z,11.46
2019-03-13T11:03:36.798Z,11.54
2019-03-13T11:04:36.797Z,11.55
2019-03-13T11:05:36.821Z,11.6
2019-03-13T11:06:36.843Z,11.54
2019-03-13T11:07:51.519Z,11.54
2019-03-13T11:08:36.878Z,11.61
2019-03-13T11:09:36.903Z,11.7
2019-03-13T11:10:36.914Z,11.67
2019-03-13T11:11:36.935Z,11.72
2019-03-13T11:12:36.988Z,11.7
2019-03-13T11:13:36.979Z,11.7
2019-03-13T11:14:36.999Z,11.67
2019-03-13T11:15:37.014Z,11.54
2019-03-13T11:17:36.816Z,11.58
2019-03-13T11:18:51.739Z,11.67
2019-03-13T11:19:37.121Z,11.61
2019-03-13T11:20:37.115Z,11.64
2019-03-13T11:21:37.141Z,11.64
2019-03-13T11:22:37.269Z,11.83
2019-03-13T11:23:51.836Z,11.73
2019-03-13T11:24:37.198Z,11.72
2019-03-13T11:25:37.227Z,11.73
2019-03-13T11:26:37.231Z,11.78
2019-03-13T11:27:37.006Z,11.8
2019-03-13T11:28:37.269Z,11.72
2019-03-13T11:29:37.313Z,11.64
2019-03-13T11:30:37.324Z,11.62
2019-03-13T11:31:37.335Z,11.75
2019-03-13T11:32:37.366Z,11.79
2019-03-13T11:33:37.380Z,11.72
2019-03-13T11:34:37.498Z,11.65
2019-03-13T11:35:52.071Z,11.57
2019-03-13T11:37:37.447Z,11.46
2019-03-13T11:38:52.131Z,11.47
2019-03-13T11:39:37.487Z,11.43
2019-03-13T11:40:37.543Z,11.44
2019-03-13T11:41:37.530Z,11.49
2019-03-13T11:42:37.548Z,11.55
2019-03-13T11:43:37.570Z,11.57
2019-03-13T11:44:52.255Z,11.7
2019-03-13T11:45:37.615Z,11.8
2019-03-13T11:46:37.644Z,11.8
2019-03-13T11:47:47.296Z,11.96
2019-03-13T11:48:37.671Z,11.98
2019-03-13T11:49:52.348Z,12.01
2019-03-13T11:50:37.713Z,11.8
2019-03-13T11:51:52.401Z,11.7
2019-03-13T11:52:37.742Z,11.6
2019-03-13T11:53:37.777Z,11.57
2019-03-13T11:54:37.784Z,11.58
2019-03-13T11:55:37.805Z,11.7
2019-03-13T11:56:52.239Z,11.69
2019-03-13T11:57:37.845Z,11.72
2019-03-13T11:58:37.859Z,11.46
2019-03-13T11:59:37.878Z,11.35
2019-03-13T12:00:37.900Z,11.43
2019-03-13T12:01:50.000Z,11.42
2019-03-13T12:02:37.940Z,11.51
2019-03-13T12:03:37.956Z,11.58
2019-03-13T12:04:37.986Z,11.57
2019-03-13T12:05:37.996Z,11.47
2019-03-13T12:06:38.015Z,11.29
2019-03-13T12:07:38.039Z,11.27
2019-03-13T12:08:38.059Z,11.07
2019-03-13T12:09:38.082Z,11.07
2019-03-13T12:10:52.757Z,10.96
2019-03-13T12:11:38.113Z,10.91
2019-03-13T12:12:38.131Z,10.84
2019-03-13T12:13:38.155Z,10.82
2019-03-13T12:14:38.169Z,10.84
2019-03-13T12:15:38.192Z,10.85
2019-03-13T12:16:38.225Z,10.86
2019-03-13T12:17:38.232Z,10.86
2019-03-13T12:18:38.246Z,10.91
2019-03-13T12:19:38.271Z,10.89
2019-03-13T12:20:38.286Z,10.99
2019-03-13T12:21:38.315Z,10.84
2019-03-13T12:22:38.392Z,10.96
2019-03-13T12:23:53.008Z,10.94
2019-03-13T12:24:53.024Z,10.84
2019-03-13T12:25:38.378Z,10.79
2019-03-13T12:26:53.069Z,10.71
2019-03-13T12:27:38.421Z,10.68
2019-03-13T12:28:38.441Z,10.64
2019-03-13T12:29:38.473Z,10.68
2019-03-13T12:30:38.501Z,10.7
2019-03-13T12:31:38.494Z,10.64
2019-03-13T12:32:38.511Z,10.55
2019-03-13T12:33:40.259Z,10.59
2019-03-13T12:35:38.579Z,10.6
2019-03-13T12:36:41.696Z,10.59
2019-03-13T12:37:38.607Z,10.64
2019-03-13T12:38:38.628Z,10.66
2019-03-13T12:39:38.647Z,10.71
2019-03-13T12:40:38.665Z,10.7
2019-03-13T12:41:38.681Z,10.74
2019-03-13T12:42:53.362Z,10.74
2019-03-13T12:43:38.719Z,10.71
2019-03-13T12:44:38.740Z,10.79
2019-03-13T12:46:38.771Z,10.7
2019-03-13T12:47:38.801Z,10.64
2019-03-13T12:48:38.817Z,10.68
2019-03-13T12:49:38.830Z,10.74
2019-03-13T12:50:39.214Z,10.74
2019-03-13T12:51:38.623Z,10.76
2019-03-13T12:53:38.904Z,10.82
2019-03-13T12:54:53.585Z,10.92
2019-03-13T12:55:53.603Z,10.96
2019-03-13T12:56:38.959Z,10.94
2019-03-13T12:57:38.976Z,10.91
2019-03-13T12:58:53.661Z,10.92
2019-03-13T12:59:39.018Z,10.91
2019-03-13T13:01:39.059Z,10.74
2019-03-13T13:02:39.072Z,10.7
2019-03-13T13:03:39.089Z,10.71
2019-03-13T13:04:53.523Z,10.79
2019-03-13T13:05:39.132Z,10.86
2019-03-13T13:06:39.244Z,10.79
2019-03-13T13:07:39.169Z,10.79
2019-03-13T13:08:39.184Z,10.89
2019-03-13T13:09:53.865Z,10.91
2019-03-13T13:10:39.222Z,10.85
2019-03-13T13:11:39.243Z,10.94
2019-03-13T13:12:39.256Z,10.88
2019-03-13T13:13:53.945Z,10.89
2019-03-13T13:14:39.299Z,10.88
2019-03-13T13:15:39.325Z,10.78
2019-03-13T13:16:39.337Z,10.73
2019-03-13T13:17:39.377Z,10.71
2019-03-13T13:18:39.367Z,10.71
2019-03-13T13:19:39.399Z,10.61
2019-03-13T13:20:39.406Z,10.52
2019-03-13T13:21:39.430Z,10.51
2019-03-13T13:23:39.469Z,10.45
2019-03-13T13:24:39.481Z,10.48
2019-03-13T13:25:54.162Z,10.42
2019-03-13T13:26:39.522Z,10.45
2019-03-13T13:27:39.538Z,10.44
2019-03-13T13:28:39.554Z,10.42
2019-03-13T13:29:39.592Z,10.33
2019-03-13T13:30:39.603Z,10.42
2019-03-13T13:31:39.616Z,10.45
2019-03-13T13:32:54.300Z,10.32
2019-03-13T13:33:39.654Z,10.41
2019-03-13T13:34:39.671Z,10.44
2019-03-13T13:35:39.682Z,10.44
2019-03-13T13:36:39.704Z,10.41
2019-03-13T13:37:39.721Z,10.41
2019-03-13T13:38:39.744Z,10.33
2019-03-13T13:39:39.508Z,10.45
2019-03-13T13:40:39.777Z,10.4
2019-03-13T13:41:54.457Z,10.38
2019-03-13T13:42:39.816Z,10.32
2019-03-13T13:43:39.830Z,10.45
2019-03-13T13:44:39.846Z,10.41
2019-03-13T13:46:39.890Z,10.47
2019-03-13T13:47:39.904Z,10.38
2019-03-13T13:48:39.928Z,10.47
2019-03-13T13:49:39.941Z,10.56
2019-03-13T13:50:39.964Z,10.53
2019-03-13T13:51:39.978Z,10.56
2019-03-13T13:52:39.998Z,10.61
2019-03-13T13:53:40.023Z,10.76
2019-03-13T13:54:40.042Z,10.67
2019-03-13T13:55:40.056Z,10.66
2019-03-13T13:56:40.071Z,10.68
2019-03-13T13:57:54.750Z,10.73
2019-03-13T13:58:40.106Z,10.74